<?xml version="1.0" encoding="UTF-8" standalone="no" ?>
<gpx xmlns="http://www.topografix.com/GPX/1/1" creator="MapSource 6.15.3" version="1.1" xmlns:xsi="http://www.w3.org/2001/XMLSchema-instance" xsi:schemaLocation="http://www.topografix.com/GPX/1/1 http://www.topografix.com/GPX/1/1/gpx.xsd">

  <metadata>
    <link href="http://www.garmin.com">
      <text>Garmin International</text>
    </link>
    <time>2009-02-16T22:30:34Z</time>
    <bounds maxlat="28.6176200" maxlon="-17.8127800" minlat="28.4932000" minlon="-17.8590300"/>
  </metadata>

  <wpt lat="28.5103000" lon="-17.8557800">
    <ele>747.4000000</ele>
    <name>START - END</name>
    <sym>Waypoint</sym>
    <extensions>
      <gpxx:WaypointExtension xmlns:gpxx="http://www.garmin.com/xmlschemas/GpxExtensions/v3">
        <gpxx:DisplayMode>SymbolAndName</gpxx:DisplayMode>
      </gpxx:WaypointExtension>
    </extensions>
  </wpt>

  <trk>
    <name>Umrundung Cumbre Vieja</name>
    <extensions>
      <gpxx:TrackExtension xmlns:gpxx="http://www.garmin.com/xmlschemas/GpxExtensions/v3">
        <gpxx:DisplayColor>DarkGray</gpxx:DisplayColor>
      </gpxx:TrackExtension>
    </extensions>
    <trkseg>
      <trkpt lat="28.5103000" lon="-17.8557800">
        <ele>747.4000000</ele>
        <time>2009-02-09T12:38:14Z</time>
      </trkpt>
      <trkpt lat="28.5076100" lon="-17.8553000">
        <ele>742.8500000</ele>
        <time>2009-02-09T12:39:44Z</time>
      </trkpt>
      <trkpt lat="28.5067900" lon="-17.8539300">
        <ele>736.1280000</ele>
        <time>2009-02-09T12:40:33Z</time>
      </trkpt>
      <trkpt lat="28.5047200" lon="-17.8536300">
        <ele>731.5580000</ele>
        <time>2009-02-09T12:41:42Z</time>
      </trkpt>
      <trkpt lat="28.5024300" lon="-17.8537300">
        <ele>724.1030000</ele>
        <time>2009-02-09T12:42:57Z</time>
      </trkpt>
      <trkpt lat="28.5001200" lon="-17.8538100">
        <ele>714.4190000</ele>
        <time>2009-02-09T12:44:13Z</time>
      </trkpt>
      <trkpt lat="28.4986200" lon="-17.8539300">
        <ele>710.5510000</ele>
        <time>2009-02-09T12:45:02Z</time>
      </trkpt>
      <trkpt lat="28.4965600" lon="-17.8517500">
        <ele>710.5400000</ele>
        <time>2009-02-09T12:46:33Z</time>
      </trkpt>
      <trkpt lat="28.4962500" lon="-17.8510600">
        <ele>711.9860000</ele>
        <time>2009-02-09T12:46:56Z</time>
      </trkpt>
      <trkpt lat="28.4943800" lon="-17.8500200">
        <ele>713.4510000</ele>
        <time>2009-02-09T12:48:03Z</time>
      </trkpt>
      <trkpt lat="28.4939400" lon="-17.8491900">
        <ele>714.5270000</ele>
        <time>2009-02-09T12:48:31Z</time>
      </trkpt>
      <trkpt lat="28.4938300" lon="-17.8483500">
        <ele>715.4650000</ele>
        <time>2009-02-09T12:48:56Z</time>
      </trkpt>
      <trkpt lat="28.4946800" lon="-17.8460200">
        <ele>719.2500000</ele>
        <time>2009-02-09T12:50:08Z</time>
      </trkpt>
      <trkpt lat="28.4940200" lon="-17.8452600">
        <ele>720.1690000</ele>
        <time>2009-02-09T12:50:39Z</time>
      </trkpt>
      <trkpt lat="28.4940500" lon="-17.8441600">
        <ele>720.3090000</ele>
        <time>2009-02-09T12:51:11Z</time>
      </trkpt>
      <trkpt lat="28.4937300" lon="-17.8430100">
        <ele>720.8790000</ele>
        <time>2009-02-09T12:51:45Z</time>
      </trkpt>
      <trkpt lat="28.4934300" lon="-17.8427600">
        <ele>720.8730000</ele>
        <time>2009-02-09T12:51:57Z</time>
      </trkpt>
      <trkpt lat="28.4933100" lon="-17.8426600">
        <ele>720.8260000</ele>
        <time>2009-02-09T12:52:02Z</time>
      </trkpt>
      <trkpt lat="28.4932000" lon="-17.8423300">
        <ele>720.6850000</ele>
        <time>2009-02-09T12:52:12Z</time>
      </trkpt>
      <trkpt lat="28.4932900" lon="-17.8419100">
        <ele>720.6250000</ele>
        <time>2009-02-09T12:52:24Z</time>
      </trkpt>
      <trkpt lat="28.4942400" lon="-17.8418600">
        <ele>723.5270000</ele>
        <time>2009-02-09T12:53:24Z</time>
      </trkpt>
      <trkpt lat="28.4939700" lon="-17.8423600">
        <ele>730.8170000</ele>
        <time>2009-02-09T12:53:40Z</time>
      </trkpt>
      <trkpt lat="28.4945300" lon="-17.8438200">
        <ele>764.3090000</ele>
        <time>2009-02-09T12:54:40Z</time>
      </trkpt>
      <trkpt lat="28.4955200" lon="-17.8440800">
        <ele>776.0080000</ele>
        <time>2009-02-09T12:55:15Z</time>
      </trkpt>
      <trkpt lat="28.4960500" lon="-17.8444200">
        <ele>782.0180000</ele>
        <time>2009-02-09T12:55:35Z</time>
      </trkpt>
      <trkpt lat="28.4958700" lon="-17.8458800">
        <ele>788.0620000</ele>
        <time>2009-02-09T12:56:16Z</time>
      </trkpt>
      <trkpt lat="28.4947700" lon="-17.8482800">
        <ele>811.5220000</ele>
        <time>2009-02-09T12:57:34Z</time>
      </trkpt>
      <trkpt lat="28.4969100" lon="-17.8480300">
        <ele>834.5230000</ele>
        <time>2009-02-09T12:58:43Z</time>
      </trkpt>
      <trkpt lat="28.4980900" lon="-17.8471300">
        <ele>848.0840000</ele>
        <time>2009-02-09T12:59:29Z</time>
      </trkpt>
      <trkpt lat="28.5002200" lon="-17.8472200">
        <ele>862.5280000</ele>
        <time>2009-02-09T13:00:38Z</time>
      </trkpt>
      <trkpt lat="28.5019300" lon="-17.8448500">
        <ele>877.3890000</ele>
        <time>2009-02-09T13:02:05Z</time>
      </trkpt>
      <trkpt lat="28.5018500" lon="-17.8442500">
        <ele>892.0970000</ele>
        <time>2009-02-09T13:02:22Z</time>
      </trkpt>
      <trkpt lat="28.5009800" lon="-17.8440400">
        <ele>906.5350000</ele>
        <time>2009-02-09T13:02:50Z</time>
      </trkpt>
      <trkpt lat="28.5007100" lon="-17.8434400">
        <ele>920.7780000</ele>
        <time>2009-02-09T13:03:10Z</time>
      </trkpt>
      <trkpt lat="28.5013500" lon="-17.8428800">
        <ele>948.1810000</ele>
        <time>2009-02-09T13:03:37Z</time>
      </trkpt>
      <trkpt lat="28.5017700" lon="-17.8416300">
        <ele>960.5210000</ele>
        <time>2009-02-09T13:04:14Z</time>
      </trkpt>
      <trkpt lat="28.5025300" lon="-17.8409000">
        <ele>971.3610000</ele>
        <time>2009-02-09T13:04:47Z</time>
      </trkpt>
      <trkpt lat="28.5039000" lon="-17.8403400">
        <ele>987.3610000</ele>
        <time>2009-02-09T13:05:34Z</time>
      </trkpt>
      <trkpt lat="28.5040200" lon="-17.8412900">
        <ele>995.7360000</ele>
        <time>2009-02-09T13:06:01Z</time>
      </trkpt>
      <trkpt lat="28.5042100" lon="-17.8421900">
        <ele>997.4930000</ele>
        <time>2009-02-09T13:06:27Z</time>
      </trkpt>
      <trkpt lat="28.5047900" lon="-17.8431800">
        <ele>998.3190000</ele>
        <time>2009-02-09T13:07:01Z</time>
      </trkpt>
      <trkpt lat="28.5049100" lon="-17.8441700">
        <ele>998.4720000</ele>
        <time>2009-02-09T13:07:29Z</time>
      </trkpt>
      <trkpt lat="28.5052900" lon="-17.8445100">
        <ele>998.1740000</ele>
        <time>2009-02-09T13:07:45Z</time>
      </trkpt>
      <trkpt lat="28.5057900" lon="-17.8452400">
        <ele>995.5280000</ele>
        <time>2009-02-09T13:08:28Z</time>
      </trkpt>
      <trkpt lat="28.5075500" lon="-17.8472600">
        <ele>994.7220000</ele>
        <time>2009-02-09T13:09:52Z</time>
      </trkpt>
      <trkpt lat="28.5091100" lon="-17.8479100">
        <ele>1000.7600000</ele>
        <time>2009-02-09T13:10:46Z</time>
      </trkpt>
      <trkpt lat="28.5105200" lon="-17.8470500">
        <ele>1018.4900000</ele>
        <time>2009-02-09T13:11:41Z</time>
      </trkpt>
      <trkpt lat="28.5113600" lon="-17.8469200">
        <ele>1034.2400000</ele>
        <time>2009-02-09T13:12:08Z</time>
      </trkpt>
      <trkpt lat="28.5112400" lon="-17.8460200">
        <ele>1048.3300000</ele>
        <time>2009-02-09T13:12:35Z</time>
      </trkpt>
      <trkpt lat="28.5119300" lon="-17.8456400">
        <ele>1057.5100000</ele>
        <time>2009-02-09T13:13:02Z</time>
      </trkpt>
      <trkpt lat="28.5125300" lon="-17.8459400">
        <ele>1060.4700000</ele>
        <time>2009-02-09T13:13:31Z</time>
      </trkpt>
      <trkpt lat="28.5151900" lon="-17.8482300">
        <ele>1063.0200000</ele>
        <time>2009-02-09T13:15:19Z</time>
      </trkpt>
      <trkpt lat="28.5157900" lon="-17.8483800">
        <ele>1064.1300000</ele>
        <time>2009-02-09T13:15:39Z</time>
      </trkpt>
      <trkpt lat="28.5161100" lon="-17.8449500">
        <ele>1126.7400000</ele>
        <time>2009-02-09T13:17:20Z</time>
      </trkpt>
      <trkpt lat="28.5165800" lon="-17.8446900">
        <ele>1132.6400000</ele>
        <time>2009-02-09T13:17:40Z</time>
      </trkpt>
      <trkpt lat="28.5176400" lon="-17.8463600">
        <ele>1108.3600000</ele>
        <time>2009-02-09T13:18:49Z</time>
      </trkpt>
      <trkpt lat="28.5173200" lon="-17.8477600">
        <ele>1110.0000000</ele>
        <time>2009-02-09T13:19:33Z</time>
      </trkpt>
      <trkpt lat="28.5170700" lon="-17.8491600">
        <ele>1113.0300000</ele>
        <time>2009-02-09T13:20:19Z</time>
      </trkpt>
      <trkpt lat="28.5183700" lon="-17.8502000">
        <ele>1128.4400000</ele>
        <time>2009-02-09T13:21:17Z</time>
      </trkpt>
      <trkpt lat="28.5198500" lon="-17.8507800">
        <ele>1138.4400000</ele>
        <time>2009-02-09T13:22:11Z</time>
      </trkpt>
      <trkpt lat="28.5210400" lon="-17.8499900">
        <ele>1146.3900000</ele>
        <time>2009-02-09T13:22:59Z</time>
      </trkpt>
      <trkpt lat="28.5211100" lon="-17.8499000">
        <ele>1147.4300000</ele>
        <time>2009-02-09T13:23:03Z</time>
      </trkpt>
      <trkpt lat="28.5222600" lon="-17.8495800">
        <ele>1168.5100000</ele>
        <time>2009-02-09T13:23:44Z</time>
      </trkpt>
      <trkpt lat="28.5246400" lon="-17.8489600">
        <ele>1197.1100000</ele>
        <time>2009-02-09T13:25:07Z</time>
      </trkpt>
      <trkpt lat="28.5273300" lon="-17.8488300">
        <ele>1215.8700000</ele>
        <time>2009-02-09T13:27:13Z</time>
      </trkpt>
      <trkpt lat="28.5273500" lon="-17.8488500">
        <ele>1216.0200000</ele>
        <time>2009-02-09T13:27:14Z</time>
      </trkpt>
      <trkpt lat="28.5287300" lon="-17.8503900">
        <ele>1232.7600000</ele>
        <time>2009-02-09T13:28:18Z</time>
      </trkpt>
      <trkpt lat="28.5314900" lon="-17.8510800">
        <ele>1267.0500000</ele>
        <time>2009-02-09T13:30:09Z</time>
      </trkpt>
      <trkpt lat="28.5318500" lon="-17.8510400">
        <ele>1275.1500000</ele>
        <time>2009-02-09T13:30:23Z</time>
      </trkpt>
      <trkpt lat="28.5318500" lon="-17.8510300">
        <ele>1276.4100000</ele>
        <time>2009-02-09T13:30:23Z</time>
      </trkpt>
      <trkpt lat="28.5340000" lon="-17.8504100">
        <ele>1268.5300000</ele>
        <time>2009-02-09T13:31:43Z</time>
      </trkpt>
      <trkpt lat="28.5347000" lon="-17.8500600">
        <ele>1278.9100000</ele>
        <time>2009-02-09T13:32:09Z</time>
      </trkpt>
      <trkpt lat="28.5350200" lon="-17.8507000">
        <ele>1290.0500000</ele>
        <time>2009-02-09T13:32:41Z</time>
      </trkpt>
      <trkpt lat="28.5424000" lon="-17.8510800">
        <ele>1269.4800000</ele>
        <time>2009-02-09T13:36:44Z</time>
      </trkpt>
      <trkpt lat="28.5434800" lon="-17.8526400">
        <ele>1274.2500000</ele>
        <time>2009-02-09T13:37:44Z</time>
      </trkpt>
      <trkpt lat="28.5458500" lon="-17.8530600">
        <ele>1259.0300000</ele>
        <time>2009-02-09T13:39:05Z</time>
      </trkpt>
      <trkpt lat="28.5460400" lon="-17.8531600">
        <ele>1259.3600000</ele>
        <time>2009-02-09T13:39:12Z</time>
      </trkpt>
      <trkpt lat="28.5469800" lon="-17.8532500">
        <ele>1261.5400000</ele>
        <time>2009-02-09T13:39:55Z</time>
      </trkpt>
      <trkpt lat="28.5477800" lon="-17.8533900">
        <ele>1252.1600000</ele>
        <time>2009-02-09T13:40:27Z</time>
      </trkpt>
      <trkpt lat="28.5490500" lon="-17.8527300">
        <ele>1243.7100000</ele>
        <time>2009-02-09T13:41:13Z</time>
      </trkpt>
      <trkpt lat="28.5495600" lon="-17.8525900">
        <ele>1243.5600000</ele>
        <time>2009-02-09T13:41:31Z</time>
      </trkpt>
      <trkpt lat="28.5526300" lon="-17.8521300">
        <ele>1254.8200000</ele>
        <time>2009-02-09T13:43:41Z</time>
      </trkpt>
      <trkpt lat="28.5560600" lon="-17.8524700">
        <ele>1257.7400000</ele>
        <time>2009-02-09T13:45:41Z</time>
      </trkpt>
      <trkpt lat="28.5560000" lon="-17.8526800">
        <ele>1257.6200000</ele>
        <time>2009-02-09T13:45:47Z</time>
      </trkpt>
      <trkpt lat="28.5574500" lon="-17.8527900">
        <ele>1259.4400000</ele>
        <time>2009-02-09T13:46:40Z</time>
      </trkpt>
      <trkpt lat="28.5597300" lon="-17.8536500">
        <ele>1260.7700000</ele>
        <time>2009-02-09T13:48:03Z</time>
      </trkpt>
      <trkpt lat="28.5599100" lon="-17.8535900">
        <ele>1261.3400000</ele>
        <time>2009-02-09T13:48:09Z</time>
      </trkpt>
      <trkpt lat="28.5618000" lon="-17.8542400">
        <ele>1273.3000000</ele>
        <time>2009-02-09T13:49:18Z</time>
      </trkpt>
      <trkpt lat="28.5639700" lon="-17.8539000">
        <ele>1282.5000000</ele>
        <time>2009-02-09T13:50:38Z</time>
      </trkpt>
      <trkpt lat="28.5654400" lon="-17.8538300">
        <ele>1287.3900000</ele>
        <time>2009-02-09T13:51:27Z</time>
      </trkpt>
      <trkpt lat="28.5689800" lon="-17.8563700">
        <ele>1297.4700000</ele>
        <time>2009-02-09T13:54:01Z</time>
      </trkpt>
      <trkpt lat="28.5708000" lon="-17.8580300">
        <ele>1303.8200000</ele>
        <time>2009-02-09T13:55:22Z</time>
      </trkpt>
      <trkpt lat="28.5713800" lon="-17.8581100">
        <ele>1301.3300000</ele>
        <time>2009-02-09T13:55:42Z</time>
      </trkpt>
      <trkpt lat="28.5719700" lon="-17.8578600">
        <ele>1298.4500000</ele>
        <time>2009-02-09T13:56:10Z</time>
      </trkpt>
      <trkpt lat="28.5735600" lon="-17.8570200">
        <ele>1312.0900000</ele>
        <time>2009-02-09T13:57:12Z</time>
      </trkpt>
      <trkpt lat="28.5747400" lon="-17.8577900">
        <ele>1313.1500000</ele>
        <time>2009-02-09T13:58:26Z</time>
      </trkpt>
      <trkpt lat="28.5774100" lon="-17.8571300">
        <ele>1322.7800000</ele>
        <time>2009-02-09T14:00:05Z</time>
      </trkpt>
      <trkpt lat="28.5775800" lon="-17.8572500">
        <ele>1322.9700000</ele>
        <time>2009-02-09T14:00:12Z</time>
      </trkpt>
      <trkpt lat="28.5786500" lon="-17.8573400">
        <ele>1325.2200000</ele>
        <time>2009-02-09T14:00:52Z</time>
      </trkpt>
      <trkpt lat="28.5790900" lon="-17.8574200">
        <ele>1325.8500000</ele>
        <time>2009-02-09T14:01:08Z</time>
      </trkpt>
      <trkpt lat="28.5791600" lon="-17.8572200">
        <ele>1325.8400000</ele>
        <time>2009-02-09T14:01:14Z</time>
      </trkpt>
      <trkpt lat="28.5798900" lon="-17.8573100">
        <ele>1323.9500000</ele>
        <time>2009-02-09T14:01:43Z</time>
      </trkpt>
      <trkpt lat="28.5813900" lon="-17.8572500">
        <ele>1315.2800000</ele>
        <time>2009-02-09T14:02:35Z</time>
      </trkpt>
      <trkpt lat="28.5817000" lon="-17.8568200">
        <ele>1311.7300000</ele>
        <time>2009-02-09T14:02:52Z</time>
      </trkpt>
      <trkpt lat="28.5818100" lon="-17.8567100">
        <ele>1310.5400000</ele>
        <time>2009-02-09T14:02:57Z</time>
      </trkpt>
      <trkpt lat="28.5819800" lon="-17.8568000">
        <ele>1309.3700000</ele>
        <time>2009-02-09T14:03:03Z</time>
      </trkpt>
      <trkpt lat="28.5828400" lon="-17.8575900">
        <ele>1301.4100000</ele>
        <time>2009-02-09T14:03:41Z</time>
      </trkpt>
      <trkpt lat="28.5828900" lon="-17.8574700">
        <ele>1300.3900000</ele>
        <time>2009-02-09T14:03:44Z</time>
      </trkpt>
      <trkpt lat="28.5829300" lon="-17.8573700">
        <ele>1299.4200000</ele>
        <time>2009-02-09T14:03:47Z</time>
      </trkpt>
      <trkpt lat="28.5829900" lon="-17.8570300">
        <ele>1298.5300000</ele>
        <time>2009-02-09T14:03:57Z</time>
      </trkpt>
      <trkpt lat="28.5845300" lon="-17.8571500">
        <ele>1292.6700000</ele>
        <time>2009-02-09T14:04:54Z</time>
      </trkpt>
      <trkpt lat="28.5859800" lon="-17.8577100">
        <ele>1286.1900000</ele>
        <time>2009-02-09T14:05:54Z</time>
      </trkpt>
      <trkpt lat="28.5866700" lon="-17.8582500">
        <ele>1282.1300000</ele>
        <time>2009-02-09T14:06:21Z</time>
      </trkpt>
      <trkpt lat="28.5881800" lon="-17.8579800">
        <ele>1261.0600000</ele>
        <time>2009-02-09T14:07:22Z</time>
      </trkpt>
      <trkpt lat="28.5904500" lon="-17.8590300">
        <ele>1233.0900000</ele>
        <time>2009-02-09T14:09:16Z</time>
      </trkpt>
      <trkpt lat="28.5938300" lon="-17.8579200">
        <ele>1216.4300000</ele>
        <time>2009-02-09T14:11:17Z</time>
      </trkpt>
      <trkpt lat="28.5962600" lon="-17.8589600">
        <ele>1227.7700000</ele>
        <time>2009-02-09T14:12:53Z</time>
      </trkpt>
      <trkpt lat="28.5970600" lon="-17.8586900">
        <ele>1233.1900000</ele>
        <time>2009-02-09T14:13:24Z</time>
      </trkpt>
      <trkpt lat="28.5970000" lon="-17.8580900">
        <ele>1235.0400000</ele>
        <time>2009-02-09T14:13:42Z</time>
      </trkpt>
      <trkpt lat="28.5974000" lon="-17.8577700">
        <ele>1236.0000000</ele>
        <time>2009-02-09T14:13:58Z</time>
      </trkpt>
      <trkpt lat="28.5972100" lon="-17.8566900">
        <ele>1242.8500000</ele>
        <time>2009-02-09T14:14:30Z</time>
      </trkpt>
      <trkpt lat="28.5976800" lon="-17.8554500">
        <ele>1263.6700000</ele>
        <time>2009-02-09T14:15:10Z</time>
      </trkpt>
      <trkpt lat="28.5966500" lon="-17.8561500">
        <ele>1280.4600000</ele>
        <time>2009-02-09T14:16:46Z</time>
      </trkpt>
      <trkpt lat="28.5967100" lon="-17.8566100">
        <ele>1285.7900000</ele>
        <time>2009-02-09T14:17:02Z</time>
      </trkpt>
      <trkpt lat="28.5962100" lon="-17.8574000">
        <ele>1287.8300000</ele>
        <time>2009-02-09T14:17:32Z</time>
      </trkpt>
      <trkpt lat="28.5956500" lon="-17.8568800">
        <ele>1289.8700000</ele>
        <time>2009-02-09T14:18:01Z</time>
      </trkpt>
      <trkpt lat="28.5955700" lon="-17.8564800">
        <ele>1291.9600000</ele>
        <time>2009-02-09T14:18:13Z</time>
      </trkpt>
      <trkpt lat="28.5970200" lon="-17.8547800">
        <ele>1314.7600000</ele>
        <time>2009-02-09T14:19:33Z</time>
      </trkpt>
      <trkpt lat="28.5970300" lon="-17.8547200">
        <ele>1315.9000000</ele>
        <time>2009-02-09T14:19:34Z</time>
      </trkpt>
      <trkpt lat="28.5981700" lon="-17.8528500">
        <ele>1322.8100000</ele>
        <time>2009-02-09T14:20:43Z</time>
      </trkpt>
      <trkpt lat="28.5987800" lon="-17.8532000">
        <ele>1327.8400000</ele>
        <time>2009-02-09T14:21:12Z</time>
      </trkpt>
      <trkpt lat="28.6005100" lon="-17.8532800">
        <ele>1351.1900000</ele>
        <time>2009-02-09T14:22:10Z</time>
      </trkpt>
      <trkpt lat="28.6013900" lon="-17.8531100">
        <ele>1360.7300000</ele>
        <time>2009-02-09T14:22:40Z</time>
      </trkpt>
      <trkpt lat="28.6046500" lon="-17.8540100">
        <ele>1358.1400000</ele>
        <time>2009-02-09T14:24:41Z</time>
      </trkpt>
      <trkpt lat="28.6083200" lon="-17.8538700">
        <ele>1376.8500000</ele>
        <time>2009-02-09T14:26:42Z</time>
      </trkpt>
      <trkpt lat="28.6101300" lon="-17.8515700">
        <ele>1373.8300000</ele>
        <time>2009-02-09T14:28:17Z</time>
      </trkpt>
      <trkpt lat="28.6122600" lon="-17.8522800">
        <ele>1355.7000000</ele>
        <time>2009-02-09T14:29:36Z</time>
      </trkpt>
      <trkpt lat="28.6157900" lon="-17.8493700">
        <ele>1360.3600000</ele>
        <time>2009-02-09T14:32:05Z</time>
      </trkpt>
      <trkpt lat="28.6158900" lon="-17.8491600">
        <ele>1359.7600000</ele>
        <time>2009-02-09T14:32:11Z</time>
      </trkpt>
      <trkpt lat="28.6172400" lon="-17.8485200">
        <ele>1353.9700000</ele>
        <time>2009-02-09T14:33:03Z</time>
      </trkpt>
      <trkpt lat="28.6176200" lon="-17.8463000">
        <ele>1365.0300000</ele>
        <time>2009-02-09T14:34:16Z</time>
      </trkpt>
      <trkpt lat="28.6168800" lon="-17.8460200">
        <ele>1372.0200000</ele>
        <time>2009-02-09T14:34:46Z</time>
      </trkpt>
      <trkpt lat="28.6158300" lon="-17.8449400">
        <ele>1387.2000000</ele>
        <time>2009-02-09T14:35:35Z</time>
      </trkpt>
      <trkpt lat="28.6156900" lon="-17.8441400">
        <ele>1398.2500000</ele>
        <time>2009-02-09T14:36:01Z</time>
      </trkpt>
      <trkpt lat="28.6141200" lon="-17.8434100">
        <ele>1434.2900000</ele>
        <time>2009-02-09T14:37:01Z</time>
      </trkpt>
      <trkpt lat="28.6137200" lon="-17.8411300">
        <ele>1439.3900000</ele>
        <time>2009-02-09T14:38:12Z</time>
      </trkpt>
      <trkpt lat="28.6133800" lon="-17.8407600">
        <ele>1442.7800000</ele>
        <time>2009-02-09T14:38:28Z</time>
      </trkpt>
      <trkpt lat="28.6132100" lon="-17.8402800">
        <ele>1448.8000000</ele>
        <time>2009-02-09T14:38:49Z</time>
      </trkpt>
      <trkpt lat="28.6133700" lon="-17.8399800">
        <ele>1451.2700000</ele>
        <time>2009-02-09T14:38:59Z</time>
      </trkpt>
      <trkpt lat="28.6139200" lon="-17.8373900">
        <ele>1458.6200000</ele>
        <time>2009-02-09T14:40:19Z</time>
      </trkpt>
      <trkpt lat="28.6139700" lon="-17.8372600">
        <ele>1458.3700000</ele>
        <time>2009-02-09T14:40:23Z</time>
      </trkpt>
      <trkpt lat="28.6140100" lon="-17.8370800">
        <ele>1458.3700000</ele>
        <time>2009-02-09T14:40:29Z</time>
      </trkpt>
      <trkpt lat="28.6144700" lon="-17.8348000">
        <ele>1480.2300000</ele>
        <time>2009-02-09T14:41:38Z</time>
      </trkpt>
      <trkpt lat="28.6128700" lon="-17.8345500">
        <ele>1483.1600000</ele>
        <time>2009-02-09T14:42:46Z</time>
      </trkpt>
      <trkpt lat="28.6122500" lon="-17.8331600">
        <ele>1491.6400000</ele>
        <time>2009-02-09T14:43:44Z</time>
      </trkpt>
      <trkpt lat="28.6110700" lon="-17.8319100">
        <ele>1480.7200000</ele>
        <time>2009-02-09T14:44:38Z</time>
      </trkpt>
      <trkpt lat="28.6101600" lon="-17.8306500">
        <ele>1470.4500000</ele>
        <time>2009-02-09T14:45:29Z</time>
      </trkpt>
      <trkpt lat="28.6096700" lon="-17.8293600">
        <ele>1460.9700000</ele>
        <time>2009-02-09T14:46:11Z</time>
      </trkpt>
      <trkpt lat="28.6098400" lon="-17.8289000">
        <ele>1458.0900000</ele>
        <time>2009-02-09T14:46:25Z</time>
      </trkpt>
      <trkpt lat="28.6093900" lon="-17.8268400">
        <ele>1441.4800000</ele>
        <time>2009-02-09T14:47:27Z</time>
      </trkpt>
      <trkpt lat="28.6105900" lon="-17.8258000">
        <ele>1423.5000000</ele>
        <time>2009-02-09T14:48:18Z</time>
      </trkpt>
      <trkpt lat="28.6104200" lon="-17.8255400">
        <ele>1420.0900000</ele>
        <time>2009-02-09T14:48:27Z</time>
      </trkpt>
      <trkpt lat="28.6090100" lon="-17.8252400">
        <ele>1403.5300000</ele>
        <time>2009-02-09T14:49:17Z</time>
      </trkpt>
      <trkpt lat="28.6086900" lon="-17.8252900">
        <ele>1401.5200000</ele>
        <time>2009-02-09T14:49:27Z</time>
      </trkpt>
      <trkpt lat="28.6084800" lon="-17.8243300">
        <ele>1393.7900000</ele>
        <time>2009-02-09T14:50:16Z</time>
      </trkpt>
      <trkpt lat="28.6070200" lon="-17.8244900">
        <ele>1385.1700000</ele>
        <time>2009-02-09T14:51:11Z</time>
      </trkpt>
      <trkpt lat="28.6080600" lon="-17.8235000">
        <ele>1373.4000000</ele>
        <time>2009-02-09T14:52:09Z</time>
      </trkpt>
      <trkpt lat="28.6069400" lon="-17.8201800">
        <ele>1373.2700000</ele>
        <time>2009-02-09T14:53:51Z</time>
      </trkpt>
      <trkpt lat="28.6063400" lon="-17.8203400">
        <ele>1373.3300000</ele>
        <time>2009-02-09T14:54:22Z</time>
      </trkpt>
      <trkpt lat="28.6052800" lon="-17.8209000">
        <ele>1369.3000000</ele>
        <time>2009-02-09T14:55:07Z</time>
      </trkpt>
      <trkpt lat="28.6054900" lon="-17.8181500">
        <ele>1363.1100000</ele>
        <time>2009-02-09T14:56:27Z</time>
      </trkpt>
      <trkpt lat="28.6055100" lon="-17.8178000">
        <ele>1362.7300000</ele>
        <time>2009-02-09T14:56:37Z</time>
      </trkpt>
      <trkpt lat="28.6048400" lon="-17.8182600">
        <ele>1361.8400000</ele>
        <time>2009-02-09T14:57:09Z</time>
      </trkpt>
      <trkpt lat="28.6043600" lon="-17.8183500">
        <ele>1362.2400000</ele>
        <time>2009-02-09T14:57:28Z</time>
      </trkpt>
      <trkpt lat="28.6041700" lon="-17.8182000">
        <ele>1362.3700000</ele>
        <time>2009-02-09T14:57:35Z</time>
      </trkpt>
      <trkpt lat="28.6033000" lon="-17.8190200">
        <ele>1362.8800000</ele>
        <time>2009-02-09T14:58:13Z</time>
      </trkpt>
      <trkpt lat="28.6018100" lon="-17.8179800">
        <ele>1359.9200000</ele>
        <time>2009-02-09T14:59:12Z</time>
      </trkpt>
      <trkpt lat="28.5981900" lon="-17.8172600">
        <ele>1360.4400000</ele>
        <time>2009-02-09T15:01:19Z</time>
      </trkpt>
      <trkpt lat="28.5979700" lon="-17.8175200">
        <ele>1360.8900000</ele>
        <time>2009-02-09T15:01:29Z</time>
      </trkpt>
      <trkpt lat="28.5941900" lon="-17.8151500">
        <ele>1359.8500000</ele>
        <time>2009-02-09T15:04:02Z</time>
      </trkpt>
      <trkpt lat="28.5946300" lon="-17.8138000">
        <ele>1348.8800000</ele>
        <time>2009-02-09T15:04:52Z</time>
      </trkpt>
      <trkpt lat="28.5941500" lon="-17.8129100">
        <ele>1342.2200000</ele>
        <time>2009-02-09T15:05:23Z</time>
      </trkpt>
      <trkpt lat="28.5913100" lon="-17.8127800">
        <ele>1325.9200000</ele>
        <time>2009-02-09T15:07:00Z</time>
      </trkpt>
      <trkpt lat="28.5887100" lon="-17.8152800">
        <ele>1318.2700000</ele>
        <time>2009-02-09T15:09:00Z</time>
      </trkpt>
      <trkpt lat="28.5880800" lon="-17.8154600">
        <ele>1322.9900000</ele>
        <time>2009-02-09T15:09:28Z</time>
      </trkpt>
      <trkpt lat="28.5863200" lon="-17.8146400">
        <ele>1327.7000000</ele>
        <time>2009-02-09T15:10:39Z</time>
      </trkpt>
      <trkpt lat="28.5825000" lon="-17.8139800">
        <ele>1331.9100000</ele>
        <time>2009-02-09T15:12:53Z</time>
      </trkpt>
      <trkpt lat="28.5803100" lon="-17.8152000">
        <ele>1323.7600000</ele>
        <time>2009-02-09T15:14:25Z</time>
      </trkpt>
      <trkpt lat="28.5789400" lon="-17.8153600">
        <ele>1330.1900000</ele>
        <time>2009-02-09T15:15:15Z</time>
      </trkpt>
      <trkpt lat="28.5778400" lon="-17.8151500">
        <ele>1328.9200000</ele>
        <time>2009-02-09T15:16:03Z</time>
      </trkpt>
      <trkpt lat="28.5740700" lon="-17.8150300">
        <ele>1326.4900000</ele>
        <time>2009-02-09T15:18:12Z</time>
      </trkpt>
      <trkpt lat="28.5731700" lon="-17.8152400">
        <ele>1318.7300000</ele>
        <time>2009-02-09T15:19:03Z</time>
      </trkpt>
      <trkpt lat="28.5720300" lon="-17.8161800">
        <ele>1323.6100000</ele>
        <time>2009-02-09T15:20:05Z</time>
      </trkpt>
      <trkpt lat="28.5705600" lon="-17.8169400">
        <ele>1328.4200000</ele>
        <time>2009-02-09T15:21:00Z</time>
      </trkpt>
      <trkpt lat="28.5620100" lon="-17.8179100">
        <ele>1275.0200000</ele>
        <time>2009-02-09T15:25:52Z</time>
      </trkpt>
      <trkpt lat="28.5559000" lon="-17.8213700">
        <ele>1218.5300000</ele>
        <time>2009-02-09T15:29:58Z</time>
      </trkpt>
      <trkpt lat="28.5560000" lon="-17.8215800">
        <ele>1217.5400000</ele>
        <time>2009-02-09T15:30:05Z</time>
      </trkpt>
      <trkpt lat="28.5535100" lon="-17.8225700">
        <ele>1202.1500000</ele>
        <time>2009-02-09T15:31:49Z</time>
      </trkpt>
      <trkpt lat="28.5533300" lon="-17.8225100">
        <ele>1200.5000000</ele>
        <time>2009-02-09T15:31:55Z</time>
      </trkpt>
      <trkpt lat="28.5450100" lon="-17.8265900">
        <ele>1233.9700000</ele>
        <time>2009-02-09T15:37:33Z</time>
      </trkpt>
      <trkpt lat="28.5450300" lon="-17.8268300">
        <ele>1233.6200000</ele>
        <time>2009-02-09T15:37:39Z</time>
      </trkpt>
      <trkpt lat="28.5369500" lon="-17.8290600">
        <ele>1208.6500000</ele>
        <time>2009-02-09T15:42:49Z</time>
      </trkpt>
      <trkpt lat="28.5341900" lon="-17.8308000">
        <ele>1191.1700000</ele>
        <time>2009-02-09T15:44:45Z</time>
      </trkpt>
      <trkpt lat="28.5334600" lon="-17.8299200">
        <ele>1181.2300000</ele>
        <time>2009-02-09T15:45:22Z</time>
      </trkpt>
      <trkpt lat="28.5333200" lon="-17.8297100">
        <ele>1179.5200000</ele>
        <time>2009-02-09T15:45:29Z</time>
      </trkpt>
      <trkpt lat="28.5318700" lon="-17.8294500">
        <ele>1163.8100000</ele>
        <time>2009-02-09T15:46:23Z</time>
      </trkpt>
      <trkpt lat="28.5295500" lon="-17.8311000">
        <ele>1145.5900000</ele>
        <time>2009-02-09T15:48:00Z</time>
      </trkpt>
      <trkpt lat="28.5220200" lon="-17.8302000">
        <ele>1083.8600000</ele>
        <time>2009-02-09T15:52:30Z</time>
      </trkpt>
      <trkpt lat="28.5217900" lon="-17.8301000">
        <ele>1082.3800000</ele>
        <time>2009-02-09T15:52:37Z</time>
      </trkpt>
      <trkpt lat="28.5179300" lon="-17.8325700">
        <ele>1046.8200000</ele>
        <time>2009-02-09T15:55:09Z</time>
      </trkpt>
      <trkpt lat="28.5143700" lon="-17.8336200">
        <ele>1018.1100000</ele>
        <time>2009-02-09T15:57:11Z</time>
      </trkpt>
      <trkpt lat="28.5118200" lon="-17.8357400">
        <ele>990.9760000</ele>
        <time>2009-02-09T15:58:57Z</time>
      </trkpt>
      <trkpt lat="28.5116000" lon="-17.8356400">
        <ele>989.7610000</ele>
        <time>2009-02-09T15:59:05Z</time>
      </trkpt>
      <trkpt lat="28.5097100" lon="-17.8366800">
        <ele>969.6140000</ele>
        <time>2009-02-09T16:00:15Z</time>
      </trkpt>
      <trkpt lat="28.5091500" lon="-17.8373700">
        <ele>987.1250000</ele>
        <time>2009-02-09T16:07:48Z</time>
      </trkpt>
      <trkpt lat="28.5084900" lon="-17.8376700">
        <ele>992.6980000</ele>
        <time>2009-02-09T16:08:12Z</time>
      </trkpt>
      <trkpt lat="28.5093100" lon="-17.8382100">
        <ele>999.2510000</ele>
        <time>2009-02-09T16:08:47Z</time>
      </trkpt>
      <trkpt lat="28.5097700" lon="-17.8386000">
        <ele>1007.9700000</ele>
        <time>2009-02-09T16:09:07Z</time>
      </trkpt>
      <trkpt lat="28.5104400" lon="-17.8400700">
        <ele>1009.4300000</ele>
        <time>2009-02-09T16:09:55Z</time>
      </trkpt>
      <trkpt lat="28.5105900" lon="-17.8418500">
        <ele>1010.2500000</ele>
        <time>2009-02-09T16:10:49Z</time>
      </trkpt>
      <trkpt lat="28.5112400" lon="-17.8427800">
        <ele>1009.1000000</ele>
        <time>2009-02-09T16:11:26Z</time>
      </trkpt>
      <trkpt lat="28.5121900" lon="-17.8455300">
        <ele>1009.0100000</ele>
        <time>2009-02-09T16:12:53Z</time>
      </trkpt>
      <trkpt lat="28.5112800" lon="-17.8456300">
        <ele>1005.2000000</ele>
        <time>2009-02-09T16:14:11Z</time>
      </trkpt>
      <trkpt lat="28.5115200" lon="-17.8465200">
        <ele>995.2280000</ele>
        <time>2009-02-09T16:14:40Z</time>
      </trkpt>
      <trkpt lat="28.5092000" lon="-17.8479000">
        <ele>983.3010000</ele>
        <time>2009-02-09T16:16:11Z</time>
      </trkpt>
      <trkpt lat="28.5080900" lon="-17.8476100">
        <ele>975.0860000</ele>
        <time>2009-02-09T16:16:51Z</time>
      </trkpt>
      <trkpt lat="28.5066500" lon="-17.8465400">
        <ele>959.4450000</ele>
        <time>2009-02-09T16:17:50Z</time>
      </trkpt>
      <trkpt lat="28.5058300" lon="-17.8452000">
        <ele>943.6940000</ele>
        <time>2009-02-09T16:18:38Z</time>
      </trkpt>
      <trkpt lat="28.5058600" lon="-17.8449400">
        <ele>940.9310000</ele>
        <time>2009-02-09T16:18:46Z</time>
      </trkpt>
      <trkpt lat="28.5050000" lon="-17.8440300">
        <ele>904.0100000</ele>
        <time>2009-02-09T16:20:48Z</time>
      </trkpt>
      <trkpt lat="28.5049700" lon="-17.8432800">
        <ele>900.7650000</ele>
        <time>2009-02-09T16:21:10Z</time>
      </trkpt>
      <trkpt lat="28.5041600" lon="-17.8406600">
        <ele>882.3910000</ele>
        <time>2009-02-09T16:22:32Z</time>
      </trkpt>
      <trkpt lat="28.5041300" lon="-17.8403600">
        <ele>880.3680000</ele>
        <time>2009-02-09T16:22:41Z</time>
      </trkpt>
      <trkpt lat="28.5026200" lon="-17.8407700">
        <ele>863.7590000</ele>
        <time>2009-02-09T16:23:40Z</time>
      </trkpt>
      <trkpt lat="28.5018400" lon="-17.8434200">
        <ele>848.3570000</ele>
        <time>2009-02-09T16:25:00Z</time>
      </trkpt>
      <trkpt lat="28.5018300" lon="-17.8439500">
        <ele>846.5290000</ele>
        <time>2009-02-09T16:25:17Z</time>
      </trkpt>
      <trkpt lat="28.5022800" lon="-17.8455300">
        <ele>823.1500000</ele>
        <time>2009-02-09T16:26:11Z</time>
      </trkpt>
      <trkpt lat="28.5015800" lon="-17.8465400">
        <ele>818.3470000</ele>
        <time>2009-02-09T16:26:47Z</time>
      </trkpt>
      <trkpt lat="28.5014200" lon="-17.8469400">
        <ele>813.8540000</ele>
        <time>2009-02-09T16:27:00Z</time>
      </trkpt>
      <trkpt lat="28.5013800" lon="-17.8473900">
        <ele>811.6810000</ele>
        <time>2009-02-09T16:27:12Z</time>
      </trkpt>
      <trkpt lat="28.5013100" lon="-17.8483300">
        <ele>797.0580000</ele>
        <time>2009-02-09T16:27:40Z</time>
      </trkpt>
      <trkpt lat="28.5005600" lon="-17.8499400">
        <ele>786.1490000</ele>
        <time>2009-02-09T16:28:32Z</time>
      </trkpt>
      <trkpt lat="28.4989900" lon="-17.8509500">
        <ele>776.7450000</ele>
        <time>2009-02-09T16:29:32Z</time>
      </trkpt>
      <trkpt lat="28.4986100" lon="-17.8514900">
        <ele>761.7810000</ele>
        <time>2009-02-09T16:29:53Z</time>
      </trkpt>
      <trkpt lat="28.4978700" lon="-17.8531500">
        <ele>720.2100000</ele>
        <time>2009-02-09T16:30:47Z</time>
      </trkpt>
      <trkpt lat="28.4985600" lon="-17.8538800">
        <ele>716.3080000</ele>
        <time>2009-02-09T16:31:18Z</time>
      </trkpt>
      <trkpt lat="28.5016700" lon="-17.8535800">
        <ele>729.5060000</ele>
        <time>2009-02-09T16:33:00Z</time>
      </trkpt>
      <trkpt lat="28.5067000" lon="-17.8539100">
        <ele>749.6380000</ele>
        <time>2009-02-09T16:35:47Z</time>
      </trkpt>
      <trkpt lat="28.5074000" lon="-17.8550800">
        <ele>751.9010000</ele>
        <time>2009-02-09T16:36:28Z</time>
      </trkpt>
      <trkpt lat="28.5104400" lon="-17.8557800">
        <ele>759.3260000</ele>
        <time>2009-02-09T16:38:13Z</time>
      </trkpt>
    </trkseg>
  </trk>

</gpx>
